Moss Point, Mississippi
Current Conditions -  °F | °C
As of 10:53 PM on Sunday 21 Dec 2014 (Local Time) from KPQL Reporting Station
Overcast Overcast  
Wind Chill: 56°   Ceiling: 600
Heat Index: 56°   Visibility: 7mi
Dew Point: 54°   Wind: 6mph
Humidity: 93%   Direction: 50°NE
Pressure: 29.98"   Gusts: NA
Location:  30.4°N, 88.54°W
Report Text: KPQL 220453Z AUTO 05005KT 7SM BKN006 OVC012 13/12 A2998 RMK AO2 SLP153 T01330122 TSNO
Loading
Personal Weather Stations






























Interactive Weather Map New forecast layout! Learn more

10-Day Weather Forecast

Advertisements
Track Severe Weather on mobile